sensor_id;sensor_type;location;lat;lon;timestamp;pressure;altitude;pressure_sealevel;temperature;humidity
29359;BME280;16347;53.232;6.556;2023-08-01T00:01:15;99661.13;;;19.14;75.92
29359;BME280;16347;53.232;6.556;2023-08-01T00:03:43;99658.75;;;18.94;76.28
29359;BME280;16347;53.232;6.556;2023-08-01T00:06:11;99657.56;;;18.90;76.33
29359;BME280;16347;53.232;6.556;2023-08-01T00:08:40;99659.03;;;18.81;75.08
29359;BME280;16347;53.232;6.556;2023-08-01T00:11:08;99656.63;;;18.85;75.34
29359;BME280;16347;53.232;6.556;2023-08-01T00:13:36;99660.72;;;18.82;74.31
29359;BME280;16347;53.232;6.556;2023-08-01T00:16:05;99674.34;;;18.77;73.83
29359;BME280;16347;53.232;6.556;2023-08-01T00:18:34;99651.47;;;18.77;73.09
29359;BME280;16347;53.232;6.556;2023-08-01T00:21:02;99647.03;;;18.87;73.08
29359;BME280;16347;53.232;6.556;2023-08-01T00:23:32;99643.44;;;18.99;72.27
29359;BME280;16347;53.232;6.556;2023-08-01T00:26:01;99645.56;;;19.08;72.41
29359;BME280;16347;53.232;6.556;2023-08-01T00:28:29;99641.53;;;18.99;72.20
29359;BME280;16347;53.232;6.556;2023-08-01T00:31:11;99635.06;;;18.93;71.97
29359;BME280;16347;53.232;6.556;2023-08-01T00:33:39;99625.00;;;18.99;72.25
29359;BME280;16347;53.232;6.556;2023-08-01T00:36:07;99614.91;;;19.05;72.33
29359;BME280;16347;53.232;6.556;2023-08-01T00:38:37;99615.03;;;19.10;72.02
29359;BME280;16347;53.232;6.556;2023-08-01T00:41:05;99618.00;;;19.20;71.95
29359;BME280;16347;53.232;6.556;2023-08-01T00:43:33;99613.34;;;19.09;71.95
29359;BME280;16347;53.232;6.556;2023-08-01T00:46:03;99608.06;;;19.07;72.56
29359;BME280;16347;53.232;6.556;2023-08-01T00:48:33;99603.41;;;19.08;72.63
29359;BME280;16347;53.232;6.556;2023-08-01T00:51:04;99601.34;;;19.15;72.55
29359;BME280;16347;53.232;6.556;2023-08-01T00:53:32;99595.47;;;19.11;71.92
29359;BME280;16347;53.232;6.556;2023-08-01T00:56:03;99596.72;;;19.04;71.93
29359;BME280;16347;53.232;6.556;2023-08-01T00:58:31;99600.06;;;19.06;72.07
29359;BME280;16347;53.232;6.556;2023-08-01T01:00:59;99608.81;;;18.91;72.68
29359;BME280;16347;53.232;6.556;2023-08-01T01:03:27;99596.13;;;19.02;72.42
29359;BME280;16347;53.232;6.556;2023-08-01T01:06:04;99606.69;;;18.93;72.73
29359;BME280;16347;53.232;6.556;2023-08-01T01:08:34;99604.78;;;18.82;73.02
29359;BME280;16347;53.232;6.556;2023-08-01T01:11:02;99595.06;;;18.91;72.82
29359;BME280;16347;53.232;6.556;2023-08-01T01:13:31;99598.56;;;18.86;72.43
29359;BME280;16347;53.232;6.556;2023-08-01T01:15:59;99587.91;;;18.90;72.44
29359;BME280;16347;53.232;6.556;2023-08-01T01:18:27;99592.44;;;18.84;72.49
29359;BME280;16347;53.232;6.556;2023-08-01T01:20:56;99596.97;;;18.90;72.95
29359;BME280;16347;53.232;6.556;2023-08-01T01:23:25;99591.09;;;18.87;72.22
29359;BME280;16347;53.232;6.556;2023-08-01T01:25:56;99594.84;;;18.81;72.61
29359;BME280;16347;53.232;6.556;2023-08-01T01:28:25;99587.56;;;18.75;72.70
29359;BME280;16347;53.232;6.556;2023-08-01T01:30:54;99577.59;;;18.85;73.36
29359;BME280;16347;53.232;6.556;2023-08-01T01:33:23;99579.03;;;18.88;72.60
29359;BME280;16347;53.232;6.556;2023-08-01T01:35:51;99571.38;;;18.90;72.30
29359;BME280;16347;53.232;6.556;2023-08-01T01:38:21;99572.19;;;18.90;72.41
29359;BME280;16347;53.232;6.556;2023-08-01T01:40:49;99564.91;;;18.84;72.04
29359;BME280;16347;53.232;6.556;2023-08-01T01:43:17;99560.69;;;18.93;72.45
29359;BME280;16347;53.232;6.556;2023-08-01T01:45:45;99553.25;;;18.94;71.89
29359;BME280;16347;53.232;6.556;2023-08-01T01:48:13;99560.78;;;18.99;71.81
29359;BME280;16347;53.232;6.556;2023-08-01T01:50:42;99554.69;;;18.97;71.82
29359;BME280;16347;53.232;6.556;2023-08-01T01:53:10;99543.78;;;19.02;72.22
29359;BME280;16347;53.232;6.556;2023-08-01T01:55:40;99550.97;;;19.03;71.66
29359;BME280;16347;53.232;6.556;2023-08-01T01:58:07;99548.22;;;19.03;72.03
29359;BME280;16347;53.232;6.556;2023-08-01T02:00:38;99542.78;;;19.08;71.80
29359;BME280;16347;53.232;6.556;2023-08-01T02:03:06;99546.03;;;19.05;71.55
29359;BME280;16347;53.232;6.556;2023-08-01T02:05:36;99544.84;;;19.01;71.64
29359;BME280;16347;53.232;6.556;2023-08-01T02:08:04;99536.38;;;18.90;72.11
29359;BME280;16347;53.232;6.556;2023-08-01T02:10:32;99537.47;;;18.89;71.66
29359;BME280;16347;53.232;6.556;2023-08-01T02:13:02;99535.56;;;18.90;72.17
29359;BME280;16347;53.232;6.556;2023-08-01T02:15:30;99536.88;;;18.87;72.33
29359;BME280;16347;53.232;6.556;2023-08-01T02:17:58;99529.78;;;18.91;72.10
29359;BME280;16347;53.232;6.556;2023-08-01T02:20:26;99527.19;;;18.85;71.54
29359;BME280;16347;53.232;6.556;2023-08-01T02:22:55;99527.31;;;18.78;71.95
29359;BME280;16347;53.232;6.556;2023-08-01T02:25:23;99536.41;;;18.79;71.85
29359;BME280;16347;53.232;6.556;2023-08-01T02:27:52;99538.81;;;18.75;71.88
29359;BME280;16347;53.232;6.556;2023-08-01T02:30:21;99552.75;;;18.57;72.21
29359;BME280;16347;53.232;6.556;2023-08-01T02:32:49;99544.72;;;18.44;73.02
29359;BME280;16347;53.232;6.556;2023-08-01T02:35:17;99539.34;;;18.37;73.33
29359;BME280;16347;53.232;6.556;2023-08-01T02:37:45;99533.72;;;18.32;72.92
29359;BME280;16347;53.232;6.556;2023-08-01T02:40:13;99534.31;;;18.34;73.98
29359;BME280;16347;53.232;6.556;2023-08-01T02:42:41;99537.28;;;18.44;73.73
29359;BME280;16347;53.232;6.556;2023-08-01T02:45:10;99534.31;;;18.34;73.46
29359;BME280;16347;53.232;6.556;2023-08-01T02:47:39;99523.66;;;18.38;73.00
29359;BME280;16347;53.232;6.556;2023-08-01T02:50:07;99523.22;;;18.29;72.90
29359;BME280;16347;53.232;6.556;2023-08-01T02:52:35;99526.66;;;18.36;73.56
29359;BME280;16347;53.232;6.556;2023-08-01T02:55:04;99533.22;;;18.47;72.95
29359;BME280;16347;53.232;6.556;2023-08-01T02:57:32;99528.09;;;18.27;73.18
29359;BME280;16347;53.232;6.556;2023-08-01T02:59:59;99522.22;;;18.35;72.67
29359;BME280;16347;53.232;6.556;2023-08-01T03:02:31;99526.06;;;18.34;72.98
29359;BME280;16347;53.232;6.556;2023-08-01T03:05:00;99523.66;;;18.38;73.41
29359;BME280;16347;53.232;6.556;2023-08-01T03:07:31;99515.66;;;18.36;73.07
29359;BME280;16347;53.232;6.556;2023-08-01T03:09:59;99519.63;;;18.29;73.30
29359;BME280;16347;53.232;6.556;2023-08-01T03:12:27;99509.78;;;18.44;72.99
29359;BME280;16347;53.232;6.556;2023-08-01T03:14:55;99515.88;;;18.47;73.14
29359;BME280;16347;53.232;6.556;2023-08-01T03:17:23;99520.31;;;18.59;72.39
29359;BME280;16347;53.232;6.556;2023-08-01T03:19:51;99528.53;;;18.48;72.81
29359;BME280;16347;53.232;6.556;2023-08-01T03:22:20;99519.34;;;18.54;73.00
29359;BME280;16347;53.232;6.556;2023-08-01T03:24:49;99521.97;;;18.49;73.32
29359;BME280;16347;53.232;6.556;2023-08-01T03:27:17;99517.19;;;18.44;73.54
29359;BME280;16347;53.232;6.556;2023-08-01T03:29:44;99522.47;;;18.45;73.86
29359;BME280;16347;53.232;6.556;2023-08-01T03:32:13;99517.78;;;18.46;74.03
29359;BME280;16347;53.232;6.556;2023-08-01T03:34:41;99521.97;;;18.37;74.46
29359;BME280;16347;53.232;6.556;2023-08-01T03:37:09;99522.50;;;18.22;75.20
29359;BME280;16347;53.232;6.556;2023-08-01T03:39:39;99526.53;;;18.31;74.72
29359;BME280;16347;53.232;6.556;2023-08-01T03:42:07;99522.72;;;18.32;74.66
29359;BME280;16347;53.232;6.556;2023-08-01T03:44:35;99517.81;;;18.23;75.63
29359;BME280;16347;53.232;6.556;2023-08-01T03:47:04;99519.47;;;18.24;75.66
29359;BME280;16347;53.232;6.556;2023-08-01T03:49:33;99516.00;;;18.17;76.03
29359;BME280;16347;53.232;6.556;2023-08-01T03:52:01;99512.19;;;18.18;76.11
29359;BME280;16347;53.232;6.556;2023-08-01T03:54:29;99511.72;;;18.21;76.25
29359;BME280;16347;53.232;6.556;2023-08-01T03:56:58;99520.31;;;18.24;75.91
29359;BME280;16347;53.232;6.556;2023-08-01T03:59:26;99520.31;;;18.24;75.57
29359;BME280;16347;53.232;6.556;2023-08-01T04:01:54;99525.22;;;18.34;75.52
29359;BME280;16347;53.232;6.556;2023-08-01T04:04:22;99529.41;;;18.36;75.53
29359;BME280;16347;53.232;6.556;2023-08-01T04:06:50;99530.25;;;18.25;75.46
29359;BME280;16347;53.232;6.556;2023-08-01T04:09:17;99536.84;;;18.13;75.14
29359;BME280;16347;53.232;6.556;2023-08-01T04:11:45;99545.81;;;18.08;75.10
29359;BME280;16347;53.232;6.556;2023-08-01T04:14:15;99541.63;;;18.06;76.32
29359;BME280;16347;53.232;6.556;2023-08-01T04:16:43;99540.16;;;18.03;75.67
29359;BME280;16347;53.232;6.556;2023-08-01T04:19:11;99540.56;;;18.18;75.80
29359;BME280;16347;53.232;6.556;2023-08-01T04:21:39;99545.34;;;18.11;75.27
29359;BME280;16347;53.232;6.556;2023-08-01T04:24:07;99534.94;;;18.02;75.29
29359;BME280;16347;53.232;6.556;2023-08-01T04:26:35;99552.75;;;17.99;75.31
29359;BME280;16347;53.232;6.556;2023-08-01T04:29:05;99550.09;;;18.04;75.54
29359;BME280;16347;53.232;6.556;2023-08-01T04:31:34;99549.16;;;18.10;75.01
29359;BME280;16347;53.232;6.556;2023-08-01T04:34:02;99553.59;;;18.00;74.87
29359;BME280;16347;53.232;6.556;2023-08-01T04:36:30;99547.97;;;18.06;75.18
29359;BME280;16347;53.232;6.556;2023-08-01T04:38:58;99548.22;;;18.16;75.24
29359;BME280;16347;53.232;6.556;2023-08-01T04:41:26;99537.78;;;17.95;75.23
29359;BME280;16347;53.232;6.556;2023-08-01T04:43:54;99540.28;;;18.20;75.09
29359;BME280;16347;53.232;6.556;2023-08-01T04:46:22;99537.53;;;18.20;75.23
29359;BME280;16347;53.232;6.556;2023-08-01T04:48:51;99537.44;;;18.26;74.65
29359;BME280;16347;53.232;6.556;2023-08-01T04:51:19;99529.88;;;18.33;74.38
29359;BME280;16347;53.232;6.556;2023-08-01T04:53:47;99538.63;;;18.30;74.54
29359;BME280;16347;53.232;6.556;2023-08-01T04:56:15;99536.72;;;18.19;74.65
29359;BME280;16347;53.232;6.556;2023-08-01T04:58:43;99541.13;;;17.97;75.28
29359;BME280;16347;53.232;6.556;2023-08-01T05:01:12;99540.66;;;18.12;75.04
29359;BME280;16347;53.232;6.556;2023-08-01T05:03:40;99545.78;;;17.97;75.86
29359;BME280;16347;53.232;6.556;2023-08-01T05:06:09;99536.72;;;18.08;75.61
29359;BME280;16347;53.232;6.556;2023-08-01T05:08:37;99528.47;;;18.08;75.38
29359;BME280;16347;53.232;6.556;2023-08-01T05:11:05;99534.47;;;18.16;75.50
29359;BME280;16347;53.232;6.556;2023-08-01T05:13:33;99534.34;;;18.23;75.43
29359;BME280;16347;53.232;6.556;2023-08-01T05:16:01;99533.25;;;18.24;75.34
29359;BME280;16347;53.232;6.556;2023-08-01T05:18:29;99544.75;;;18.09;75.52
29359;BME280;16347;53.232;6.556;2023-08-01T05:20:57;99536.38;;;18.16;75.76
29359;BME280;16347;53.232;6.556;2023-08-01T05:23:26;99526.66;;;18.13;75.79
29359;BME280;16347;53.232;6.556;2023-08-01T05:25:54;99530.63;;;18.17;76.15
29359;BME280;16347;53.232;6.556;2023-08-01T05:28:22;99528.09;;;18.04;76.32
29359;BME280;16347;53.232;6.556;2023-08-01T05:30:50;99537.66;;;18.13;76.57
29359;BME280;16347;53.232;6.556;2023-08-01T05:33:18;99535.41;;;18.10;76.45
29359;BME280;16347;53.232;6.556;2023-08-01T05:35:45;99530.00;;;18.04;76.05
29359;BME280;16347;53.232;6.556;2023-08-01T05:38:14;99538.03;;;17.82;76.72
29359;BME280;16347;53.232;6.556;2023-08-01T05:40:43;99537.53;;;17.85;77.20
29359;BME280;16347;53.232;6.556;2023-08-01T05:43:11;99545.91;;;17.90;77.11
29359;BME280;16347;53.232;6.556;2023-08-01T05:45:39;99538.38;;;17.85;77.52
29359;BME280;16347;53.232;6.556;2023-08-01T05:48:07;99540.28;;;17.73;77.73
29359;BME280;16347;53.232;6.556;2023-08-01T05:50:35;99542.06;;;17.68;77.33
29359;BME280;16347;53.232;6.556;2023-08-01T05:53:04;99537.06;;;17.88;77.49
29359;BME280;16347;53.232;6.556;2023-08-01T05:55:32;99535.63;;;17.74;77.49
29359;BME280;16347;53.232;6.556;2023-08-01T05:58:01;99537.53;;;17.73;77.36
29359;BME280;16347;53.232;6.556;2023-08-01T06:00:29;99532.03;;;17.73;77.80
29359;BME280;16347;53.232;6.556;2023-08-01T06:02:58;99531.78;;;17.75;77.63
29359;BME280;16347;53.232;6.556;2023-08-01T06:05:27;99538.50;;;17.90;78.03
29359;BME280;16347;53.232;6.556;2023-08-01T06:07:55;99538.75;;;17.89;77.49
29359;BME280;16347;53.232;6.556;2023-08-01T06:10:23;99541.00;;;17.69;78.12
29359;BME280;16347;53.232;6.556;2023-08-01T06:12:52;99528.97;;;17.52;78.54
29359;BME280;16347;53.232;6.556;2023-08-01T06:15:21;99537.16;;;17.58;78.75
29359;BME280;16347;53.232;6.556;2023-08-01T06:17:49;99541.72;;;17.76;78.46
29359;BME280;16347;53.232;6.556;2023-08-01T06:20:17;99541.13;;;17.85;77.94
29359;BME280;16347;53.232;6.556;2023-08-01T06:22:45;99542.53;;;17.76;78.06
29359;BME280;16347;53.232;6.556;2023-08-01T06:25:13;99536.94;;;17.71;78.17
29359;BME280;16347;53.232;6.556;2023-08-01T06:27:42;99546.72;;;17.67;78.88
29359;BME280;16347;53.232;6.556;2023-08-01T06:30:11;99544.69;;;17.74;78.75
29359;BME280;16347;53.232;6.556;2023-08-01T06:32:40;99550.59;;;17.89;78.31
29359;BME280;16347;53.232;6.556;2023-08-01T06:35:08;99554.84;;;17.74;77.89
29359;BME280;16347;53.232;6.556;2023-08-01T06:37:36;99548.88;;;17.65;78.94
29359;BME280;16347;53.232;6.556;2023-08-01T06:40:05;99543.59;;;17.64;79.16
29359;BME280;16347;53.232;6.556;2023-08-01T06:42:34;99552.63;;;17.82;78.98
29359;BME280;16347;53.232;6.556;2023-08-01T06:45:02;99551.88;;;17.75;78.64
29359;BME280;16347;53.232;6.556;2023-08-01T06:47:30;99558.56;;;17.68;78.41
29359;BME280;16347;53.232;6.556;2023-08-01T06:49:59;99551.13;;;17.57;78.97
29359;BME280;16347;53.232;6.556;2023-08-01T06:52:27;99542.91;;;17.80;78.90
29359;BME280;16347;53.232;6.556;2023-08-01T06:54:56;99549.47;;;17.67;77.75
29359;BME280;16347;53.232;6.556;2023-08-01T06:57:23;99561.31;;;17.68;78.25
29359;BME280;16347;53.232;6.556;2023-08-01T06:59:51;99557.31;;;17.52;79.08
29359;BME280;16347;53.232;6.556;2023-08-01T07:02:19;99555.06;;;17.61;78.49
29359;BME280;16347;53.232;6.556;2023-08-01T07:04:47;99553.09;;;17.79;78.75
29359;BME280;16347;53.232;6.556;2023-08-01T07:07:17;99554.41;;;17.88;78.52
29359;BME280;16347;53.232;6.556;2023-08-01T07:09:45;99558.63;;;18.03;78.11
29359;BME280;16347;53.232;6.556;2023-08-01T07:12:13;99546.28;;;18.05;77.93
29359;BME280;16347;53.232;6.556;2023-08-01T07:14:41;99553.47;;;17.94;77.86
29359;BME280;16347;53.232;6.556;2023-08-01T07:17:09;99548.44;;;17.91;77.52
29359;BME280;16347;53.232;6.556;2023-08-01T07:19:37;99546.28;;;17.93;77.65
29359;BME280;16347;53.232;6.556;2023-08-01T07:22:05;99539.84;;;18.00;77.85
29359;BME280;16347;53.232;6.556;2023-08-01T07:24:34;99546.75;;;17.90;77.31
29359;BME280;16347;53.232;6.556;2023-08-01T07:27:03;99541.28;;;18.02;77.66
29359;BME280;16347;53.232;6.556;2023-08-01T07:29:31;99547.00;;;17.89;78.01
29359;BME280;16347;53.232;6.556;2023-08-01T07:31:59;99534.78;;;17.85;77.97
29359;BME280;16347;53.232;6.556;2023-08-01T07:34:28;99540.66;;;17.88;78.38
29359;BME280;16347;53.232;6.556;2023-08-01T07:36:56;99537.41;;;17.80;78.31
29359;BME280;16347;53.232;6.556;2023-08-01T07:39:24;99541.00;;;17.69;78.69
29359;BME280;16347;53.232;6.556;2023-08-01T07:41:55;99537.28;;;17.75;78.87
29359;BME280;16347;53.232;6.556;2023-08-01T07:44:23;99536.19;;;17.64;78.36
29359;BME280;16347;53.232;6.556;2023-08-01T07:46:51;99538.25;;;17.69;78.49
29359;BME280;16347;53.232;6.556;2023-08-01T07:49:20;99542.78;;;17.86;78.39
29359;BME280;16347;53.232;6.556;2023-08-01T07:51:47;99537.41;;;18.03;77.94
29359;BME280;16347;53.232;6.556;2023-08-01T07:54:15;99543.50;;;17.70;77.42
29359;BME280;16347;53.232;6.556;2023-08-01T07:56:43;99544.00;;;17.79;78.14
29359;BME280;16347;53.232;6.556;2023-08-01T07:59:16;99542.91;;;17.80;77.85
29359;BME280;16347;53.232;6.556;2023-08-01T08:01:44;99544.72;;;17.86;77.81
29359;BME280;16347;53.232;6.556;2023-08-01T08:04:13;99552.13;;;17.85;78.95
29359;BME280;16347;53.232;6.556;2023-08-01T08:06:41;99547.25;;;18.11;78.78
29359;BME280;16347;53.232;6.556;2023-08-01T08:09:09;99542.94;;;18.03;77.84
29359;BME280;16347;53.232;6.556;2023-08-01T08:11:37;99550.00;;;18.11;77.44
29359;BME280;16347;53.232;6.556;2023-08-01T08:14:05;99545.94;;;18.25;78.12
29359;BME280;16347;53.232;6.556;2023-08-01T08:16:34;99545.22;;;18.29;77.06
29359;BME280;16347;53.232;6.556;2023-08-01T08:19:02;99549.28;;;18.38;76.97
29359;BME280;16347;53.232;6.556;2023-08-01T08:21:31;99538.00;;;18.40;77.22
29359;BME280;16347;53.232;6.556;2023-08-01T08:23:59;99539.59;;;18.36;77.20
29359;BME280;16347;53.232;6.556;2023-08-01T08:26:27;99551.19;;;18.15;77.29
29359;BME280;16347;53.232;6.556;2023-08-01T08:28:55;99566.25;;;17.89;76.06
29359;BME280;16347;53.232;6.556;2023-08-01T08:31:24;99574.63;;;17.94;77.38
29359;BME280;16347;53.232;6.556;2023-08-01T08:33:53;99562.66;;;18.00;77.35
29359;BME280;16347;53.232;6.556;2023-08-01T08:36:22;99558.59;;;17.91;77.53
29359;BME280;16347;53.232;6.556;2023-08-01T08:38:50;99570.50;;;17.73;78.38
29359;BME280;16347;53.232;6.556;2023-08-01T08:41:20;99578.06;;;17.78;78.46
29359;BME280;16347;53.232;6.556;2023-08-01T08:43:49;99575.34;;;17.89;78.72
29359;BME280;16347;53.232;6.556;2023-08-01T08:46:18;99574.63;;;17.94;78.53
29359;BME280;16347;53.232;6.556;2023-08-01T08:48:47;99576.78;;;17.92;78.53
29359;BME280;16347;53.232;6.556;2023-08-01T08:51:17;99578.53;;;17.86;78.98
29359;BME280;16347;53.232;6.556;2023-08-01T08:53:46;99580.84;;;17.89;78.85
29359;BME280;16347;53.232;6.556;2023-08-01T08:56:15;99588.84;;;17.91;78.84
29359;BME280;16347;53.232;6.556;2023-08-01T08:58:44;99584.41;;;17.78;79.35
29359;BME280;16347;53.232;6.556;2023-08-01T09:01:14;99581.97;;;17.59;79.23
29359;BME280;16347;53.232;6.556;2023-08-01T09:03:42;99584.25;;;17.62;80.00
29359;BME280;16347;53.232;6.556;2023-08-01T09:06:13;99581.50;;;17.73;79.68
29359;BME280;16347;53.232;6.556;2023-08-01T09:08:49;99578.78;;;17.97;80.33
29359;BME280;16347;53.232;6.556;2023-08-01T09:11:18;99577.25;;;18.01;79.94
29359;BME280;16347;53.232;6.556;2023-08-01T09:13:47;99579.75;;;17.79;79.83
29359;BME280;16347;53.232;6.556;2023-08-01T09:16:15;99584.03;;;17.75;80.75
29359;BME280;16347;53.232;6.556;2023-08-01T09:18:48;99587.56;;;18.05;80.69
29359;BME280;16347;53.232;6.556;2023-08-01T09:21:18;99593.78;;;18.24;80.09
29359;BME280;16347;53.232;6.556;2023-08-01T09:23:47;99595.22;;;18.26;79.82
29359;BME280;16347;53.232;6.556;2023-08-01T09:26:18;99595.94;;;18.45;79.07
29359;BME280;16347;53.232;6.556;2023-08-01T09:28:55;99598.06;;;18.20;78.89
29359;BME280;16347;53.232;6.556;2023-08-01T09:31:26;99590.31;;;18.05;79.23
29359;BME280;16347;53.232;6.556;2023-08-01T09:33:57;99585.53;;;18.12;78.42
29359;BME280;16347;53.232;6.556;2023-08-01T09:36:26;99585.75;;;18.34;78.57
29359;BME280;16347;53.232;6.556;2023-08-01T09:38:59;99610.75;;;18.09;77.55
29359;BME280;16347;53.232;6.556;2023-08-01T09:41:28;99614.94;;;18.23;77.76
29359;BME280;16347;53.232;6.556;2023-08-01T09:43:57;99611.38;;;18.34;77.33
29359;BME280;16347;53.232;6.556;2023-08-01T09:46:26;99608.28;;;18.42;76.99
29359;BME280;16347;53.232;6.556;2023-08-01T09:48:54;99611.03;;;18.54;76.49
29359;BME280;16347;53.232;6.556;2023-08-01T09:51:22;99610.19;;;18.54;76.68
29359;BME280;16347;53.232;6.556;2023-08-01T09:53:52;99604.69;;;18.65;76.06
29359;BME280;16347;53.232;6.556;2023-08-01T09:56:22;99610.19;;;18.65;75.05
29359;BME280;16347;53.232;6.556;2023-08-01T09:58:54;99603.50;;;18.73;75.78
29359;BME280;16347;53.232;6.556;2023-08-01T10:01:23;99602.03;;;18.93;77.18
29359;BME280;16347;53.232;6.556;2023-08-01T10:03:52;99594.06;;;19.09;75.29
29359;BME280;16347;53.232;6.556;2023-08-01T10:06:23;99595.88;;;19.03;74.38
29359;BME280;16347;53.232;6.556;2023-08-01T10:08:52;99602.47;;;18.90;73.88
29359;BME280;16347;53.232;6.556;2023-08-01T10:11:22;99594.91;;;19.09;74.31
29359;BME280;16347;53.232;6.556;2023-08-01T10:13:50;99598.22;;;19.11;75.03
29359;BME280;16347;53.232;6.556;2023-08-01T10:16:18;99595.03;;;19.03;73.19
29359;BME280;16347;53.232;6.556;2023-08-01T10:18:47;99586.19;;;19.29;74.13
29359;BME280;16347;53.232;6.556;2023-08-01T10:21:16;99597.53;;;19.04;71.56
29359;BME280;16347;53.232;6.556;2023-08-01T10:23:45;99609.66;;;18.91;71.92
29359;BME280;16347;53.232;6.556;2023-08-01T10:26:14;99601.81;;;18.83;73.39
29359;BME280;16347;53.232;6.556;2023-08-01T10:28:52;99611.84;;;18.78;73.12
29359;BME280;16347;53.232;6.556;2023-08-01T10:31:20;99611.44;;;18.98;73.11
29359;BME280;16347;53.232;6.556;2023-08-01T10:33:50;99617.56;;;19.00;73.06
29359;BME280;16347;53.232;6.556;2023-08-01T10:36:20;99619.34;;;18.94;72.09
29359;BME280;16347;53.232;6.556;2023-08-01T10:38:50;99628.59;;;18.88;71.83
29359;BME280;16347;53.232;6.556;2023-08-01T10:41:20;99613.25;;;19.04;71.83
29359;BME280;16347;53.232;6.556;2023-08-01T10:43:49;99619.91;;;19.19;70.87
29359;BME280;16347;53.232;6.556;2023-08-01T10:46:17;99619.91;;;19.19;69.41
29359;BME280;16347;53.232;6.556;2023-08-01T10:48:50;99602.75;;;19.17;68.96
29359;BME280;16347;53.232;6.556;2023-08-01T10:51:18;99622.53;;;19.26;67.50
29359;BME280;16347;53.232;6.556;2023-08-01T10:53:47;99614.56;;;19.41;67.48
29359;BME280;16347;53.232;6.556;2023-08-01T10:56:16;99622.47;;;19.49;65.41
29359;BME280;16347;53.232;6.556;2023-08-01T10:58:46;99637.78;;;19.57;65.78
29359;BME280;16347;53.232;6.556;2023-08-01T11:01:16;99650.97;;;19.55;66.04
29359;BME280;16347;53.232;6.556;2023-08-01T11:03:44;99641.66;;;19.32;66.43
29359;BME280;16347;53.232;6.556;2023-08-01T11:06:12;99637.00;;;19.33;66.74
29359;BME280;16347;53.232;6.556;2023-08-01T11:08:41;99631.31;;;19.51;67.19
29359;BME280;16347;53.232;6.556;2023-08-01T11:11:12;99639.16;;;19.42;66.14
29359;BME280;16347;53.232;6.556;2023-08-01T11:13:50;99644.53;;;19.49;64.54
29359;BME280;16347;53.232;6.556;2023-08-01T11:16:20;99644.94;;;19.58;65.40
29359;BME280;16347;53.232;6.556;2023-08-01T11:18:48;99650.44;;;19.69;63.63
29359;BME280;16347;53.232;6.556;2023-08-01T11:21:25;99650.28;;;19.76;62.67
29359;BME280;16347;53.232;6.556;2023-08-01T11:23:54;99666.59;;;19.77;63.30
29359;BME280;16347;53.232;6.556;2023-08-01T11:26:23;99659.03;;;19.73;62.75
29359;BME280;16347;53.232;6.556;2023-08-01T11:28:53;99667.34;;;19.61;62.74
29359;BME280;16347;53.232;6.556;2023-08-01T11:31:23;99655.28;;;19.79;63.20
29359;BME280;16347;53.232;6.556;2023-08-01T11:33:55;99662.88;;;19.72;62.44
29359;BME280;16347;53.232;6.556;2023-08-01T11:36:25;99657.91;;;19.85;62.56
29359;BME280;16347;53.232;6.556;2023-08-01T11:38:56;99668.59;;;19.82;62.63
29359;BME280;16347;53.232;6.556;2023-08-01T11:41:26;99664.22;;;19.98;62.63
29359;BME280;16347;53.232;6.556;2023-08-01T11:43:54;99678.63;;;19.88;61.14
29359;BME280;16347;53.232;6.556;2023-08-01T11:46:30;99679.81;;;19.92;61.62
29359;BME280;16347;53.232;6.556;2023-08-01T11:48:59;99687.50;;;19.90;61.20
29359;BME280;16347;53.232;6.556;2023-08-01T11:51:27;99678.53;;;19.83;60.54
29359;BME280;16347;53.232;6.556;2023-08-01T11:53:59;99686.44;;;19.91;59.91
29359;BME280;16347;53.232;6.556;2023-08-01T11:56:28;99680.22;;;19.84;61.11
29359;BME280;16347;53.232;6.556;2023-08-01T11:58:56;99688.19;;;19.97;61.60
29359;BME280;16347;53.232;6.556;2023-08-01T12:01:26;99680.31;;;19.89;61.94
29359;BME280;16347;53.232;6.556;2023-08-01T12:03:56;99685.81;;;20.17;61.86
29359;BME280;16347;53.232;6.556;2023-08-01T12:06:25;99696.84;;;20.17;61.55
29359;BME280;16347;53.232;6.556;2023-08-01T12:08:53;99688.59;;;19.89;61.09
29359;BME280;16347;53.232;6.556;2023-08-01T12:11:22;99685.59;;;19.90;61.62
29359;BME280;16347;53.232;6.556;2023-08-01T12:14:05;99699.16;;;20.09;61.72
29359;BME280;16347;53.232;6.556;2023-08-01T12:16:36;99692.31;;;20.11;61.61
29359;BME280;16347;53.232;6.556;2023-08-01T12:19:05;99692.72;;;20.03;62.39
29359;BME280;16347;53.232;6.556;2023-08-01T12:21:34;99706.22;;;19.88;63.04
29359;BME280;16347;53.232;6.556;2023-08-01T12:24:03;99699.78;;;19.82;62.48
29359;BME280;16347;53.232;6.556;2023-08-01T12:26:32;99702.69;;;19.76;62.18
29359;BME280;16347;53.232;6.556;2023-08-01T12:28:59;99714.63;;;19.81;62.76
29359;BME280;16347;53.232;6.556;2023-08-01T12:31:28;99708.91;;;19.83;62.28
29359;BME280;16347;53.232;6.556;2023-08-01T12:33:57;99708.53;;;19.79;59.52
29359;BME280;16347;53.232;6.556;2023-08-01T12:36:26;99706.56;;;19.91;60.15
29359;BME280;16347;53.232;6.556;2023-08-01T12:38:54;99712.53;;;20.00;60.91
29359;BME280;16347;53.232;6.556;2023-08-01T12:41:22;99684.69;;;20.18;59.17
29359;BME280;16347;53.232;6.556;2023-08-01T12:43:50;99722.09;;;20.26;59.65
29359;BME280;16347;53.232;6.556;2023-08-01T12:46:18;99716.56;;;20.37;59.68
29359;BME280;16347;53.232;6.556;2023-08-01T12:48:46;99717.72;;;20.41;58.79
29359;BME280;16347;53.232;6.556;2023-08-01T12:51:17;99706.38;;;20.55;59.60
29359;BME280;16347;53.232;6.556;2023-08-01T12:53:45;99716.72;;;20.81;58.22
29359;BME280;16347;53.232;6.556;2023-08-01T12:56:13;99727.50;;;20.82;57.41
29359;BME280;16347;53.232;6.556;2023-08-01T12:58:41;99702.41;;;20.84;58.13
29359;BME280;16347;53.232;6.556;2023-08-01T13:01:09;99705.03;;;20.95;56.87
29359;BME280;16347;53.232;6.556;2023-08-01T13:03:37;99695.09;;;21.11;56.66
29359;BME280;16347;53.232;6.556;2023-08-01T13:06:05;99713.97;;;20.81;55.51
29359;BME280;16347;53.232;6.556;2023-08-01T13:08:36;99718.72;;;20.85;56.37